Terminal Aerodrome Forecast
Issued by NWS Wilmington, NC

Home | Current Version | Previous Version | Text Only | Print | Product List | Glossary On
Versions: 1 2 3 4 5 6 7 8 9 10 11 12 13 14 15 16 17 18 19 20 21 22 23 24 25 26
537
FTUS42 KILM 232321
TAFLBT
TAF
KLBT 232321Z 2400/2424 21007KT P6SM SCT008 OVC060
      TEMPO 2400/2403 4SM SHRA BR BKN008
     FM240300 21007KT P6SM OVC025
      TEMPO 2403/2405 5SM SHRA BR OVC008
     FM240500 24006KT P6SM VCSH OVC005
     FM240900 24004KT 5SM BR OVC008 PROB30 2413/2416 4SM -SHRA
      OVC005
     FM241600 17006KT P6SM SHRA VCTS OVC025CB
     FM242000 17010KT P6SM SHRA VCTS OVC030CB=

USA.gov is the U.S. government's official web portal to all federal, state and local government web resources and services.